createdAt,value
2023-05-15T00:00:44.460Z,1.00
2023-05-15T00:01:46.553Z,1.00
2023-05-15T00:02:49.676Z,1.00
2023-05-15T00:03:52.273Z,1.00
2023-05-15T00:04:54.374Z,1.00
2023-05-15T00:05:57.069Z,1.00
2023-05-15T00:06:59.301Z,1.00
2023-05-15T00:08:01.134Z,1.00
2023-05-15T00:09:03.017Z,1.00
2023-05-15T00:10:05.109Z,1.00
2023-05-15T00:11:07.017Z,1.20
2023-05-15T00:12:09.426Z,1.40
2023-05-15T00:13:11.157Z,1.40
2023-05-15T00:14:13.053Z,1.50
2023-05-15T00:15:14.865Z,1.30
2023-05-15T00:16:18.628Z,1.40
2023-05-15T00:17:20.647Z,1.50
2023-05-15T00:18:22.331Z,1.40
2023-05-15T00:19:24.201Z,1.20
2023-05-15T00:20:25.894Z,1.20
2023-05-15T00:21:27.624Z,1.20
2023-05-15T00:22:29.472Z,1.20
2023-05-15T00:23:31.317Z,1.00
2023-05-15T00:24:33.965Z,1.00
2023-05-15T00:25:35.799Z,1.00
2023-05-15T00:26:37.523Z,1.00
2023-05-15T00:27:39.602Z,1.00
2023-05-15T00:28:41.706Z,1.00
2023-05-15T00:29:43.766Z,1.00
2023-05-15T00:30:45.550Z,1.00
2023-05-15T00:31:47.649Z,1.00
2023-05-15T00:32:49.510Z,1.00
2023-05-15T00:33:51.588Z,1.00
2023-05-15T00:34:53.424Z,1.00
2023-05-15T00:35:55.575Z,1.00
2023-05-15T00:36:57.482Z,1.00
2023-05-15T00:37:59.158Z,1.00
2023-05-15T00:39:01.077Z,1.00
2023-05-15T00:40:02.866Z,1.00
2023-05-15T00:41:07.223Z,1.00
2023-05-15T00:42:09.897Z,1.00
2023-05-15T00:43:12.235Z,1.00
2023-05-15T00:44:16.807Z,1.00
2023-05-15T00:45:20.081Z,1.00
2023-05-15T00:46:23.013Z,1.00
2023-05-15T00:47:26.610Z,1.00
2023-05-15T00:48:29.496Z,1.00
2023-05-15T00:49:35.383Z,1.00
2023-05-15T00:50:38.291Z,1.00
2023-05-15T00:51:43.340Z,1.00
2023-05-15T00:52:46.844Z,1.00
2023-05-15T00:54:00.951Z,1.00
2023-05-15T00:55:03.804Z,1.00
2023-05-15T00:56:07.178Z,1.00
2023-05-15T00:57:09.781Z,1.00
2023-05-15T00:58:12.377Z,1.00
2023-05-15T00:59:15.758Z,1.00
2023-05-15T01:00:18.788Z,1.00
2023-05-15T01:01:20.820Z,1.00
2023-05-15T01:02:22.978Z,1.00
2023-05-15T01:03:25.106Z,1.00
2023-05-15T01:04:26.855Z,1.00
2023-05-15T01:05:29.122Z,1.00
2023-05-15T01:06:31.845Z,1.00
2023-05-15T01:07:37.153Z,1.00
2023-05-15T01:08:42.798Z,1.20
2023-05-15T01:09:45.872Z,1.40
2023-05-15T01:10:50.181Z,1.60
2023-05-15T01:11:55.242Z,1.60
2023-05-15T01:12:58.310Z,1.50
2023-05-15T01:14:00.442Z,1.20
2023-05-15T01:15:02.311Z,1.30
2023-05-15T01:16:10.511Z,1.40
2023-05-15T01:17:12.189Z,1.50
2023-05-15T01:18:13.943Z,1.40
2023-05-15T01:19:16.202Z,1.40
2023-05-15T01:20:21.116Z,1.20
2023-05-15T01:21:35.175Z,1.30
2023-05-15T01:23:03.701Z,1.70
2023-05-15T01:24:29.517Z,1.50
2023-05-15T01:26:14.653Z,1.30
2023-05-15T01:27:40.034Z,1.30
2023-05-15T01:28:48.462Z,1.30
2023-05-15T01:30:13.122Z,1.00
2023-05-15T01:31:20.170Z,1.90
2023-05-15T01:32:34.318Z,1.50
2023-05-15T01:33:41.228Z,1.70
2023-05-15T01:34:57.429Z,1.70
2023-05-15T01:36:12.982Z,1.90
2023-05-15T01:37:20.849Z,1.90
2023-05-15T01:38:50.528Z,2.10
2023-05-15T01:40:00.908Z,2.20
2023-05-15T01:41:24.804Z,1.90
2023-05-15T01:42:33.679Z,1.90
2023-05-15T01:43:37.161Z,1.70
2023-05-15T01:44:54.781Z,1.70
2023-05-15T01:45:58.168Z,1.70
2023-05-15T01:47:06.842Z,1.70
2023-05-15T01:48:09.334Z,1.70
2023-05-15T01:49:14.404Z,1.60
2023-05-15T01:50:19.109Z,1.60
2023-05-15T01:51:22.686Z,1.40
2023-05-15T01:52:32.680Z,1.50
2023-05-15T01:53:36.405Z,1.50
2023-05-15T01:54:40.517Z,1.40
2023-05-15T01:55:45.582Z,1.50
2023-05-15T01:56:48.117Z,1.60
2023-05-15T01:57:52.758Z,1.80
2023-05-15T01:58:55.524Z,1.40
2023-05-15T01:59:58.711Z,1.30
2023-05-15T02:01:01.489Z,1.40
2023-05-15T02:02:05.376Z,1.50
2023-05-15T02:03:07.457Z,1.60
2023-05-15T02:04:11.332Z,1.60
2023-05-15T02:05:14.594Z,1.70
2023-05-15T02:06:16.676Z,1.70
2023-05-15T02:07:18.464Z,1.90
2023-05-15T02:08:21.726Z,1.90
2023-05-15T02:09:25.211Z,2.10
2023-05-15T02:10:28.096Z,2.00
2023-05-15T02:11:29.822Z,2.20
2023-05-15T02:12:32.857Z,2.50
2023-05-15T02:13:35.905Z,2.80
2023-05-15T02:14:41.017Z,2.70
2023-05-15T02:15:47.497Z,3.10
2023-05-15T02:16:52.685Z,3.30
2023-05-15T02:17:54.481Z,3.60
2023-05-15T02:18:56.423Z,3.40
2023-05-15T02:19:58.172Z,3.20
2023-05-15T02:21:03.072Z,3.10
2023-05-15T02:22:06.444Z,3.10
2023-05-15T02:23:08.122Z,3.10
2023-05-15T02:24:09.904Z,3.30
2023-05-15T02:25:11.578Z,3.30
2023-05-15T02:26:21.537Z,3.20
2023-05-15T02:27:27.869Z,3.40
2023-05-15T02:28:37.155Z,3.90
2023-05-15T02:30:13.248Z,4.10
2023-05-15T02:31:28.789Z,4.20
2023-05-15T02:32:50.678Z,4.20
2023-05-15T02:34:13.252Z,4.20
2023-05-15T02:35:33.105Z,4.20
2023-05-15T02:36:40.515Z,4.20
2023-05-15T02:37:46.339Z,3.90
2023-05-15T02:38:52.078Z,3.60
2023-05-15T02:39:57.035Z,3.60
2023-05-15T02:41:00.765Z,3.60
2023-05-15T02:42:03.050Z,3.60
2023-05-15T02:43:05.927Z,4.20
2023-05-15T02:44:08.774Z,4.20
2023-05-15T02:45:11.666Z,4.00
2023-05-15T02:46:14.782Z,4.10
2023-05-15T02:47:17.516Z,4.10
2023-05-15T02:48:19.690Z,4.10
2023-05-15T02:49:22.497Z,4.10
2023-05-15T02:50:24.599Z,4.10
2023-05-15T02:51:26.578Z,4.20
2023-05-15T02:52:28.322Z,4.20
2023-05-15T02:53:31.714Z,4.20
2023-05-15T02:54:33.422Z,4.20
2023-05-15T02:55:36.266Z,4.10
2023-05-15T02:56:38.015Z,4.20
2023-05-15T02:57:39.726Z,4.20
2023-05-15T02:58:41.919Z,3.80
2023-05-15T02:59:43.755Z,3.80
2023-05-15T03:00:45.463Z,3.50
2023-05-15T03:01:48.022Z,3.50
2023-05-15T03:02:49.713Z,3.50
2023-05-15T03:03:51.613Z,3.30
2023-05-15T03:04:54.402Z,3.30
2023-05-15T03:05:56.229Z,3.30
2023-05-15T03:07:00.656Z,3.70
2023-05-15T03:08:02.415Z,4.20
2023-05-15T03:09:04.303Z,3.70
2023-05-15T03:10:06.965Z,3.50
2023-05-15T03:11:08.719Z,3.40
2023-05-15T03:12:11.342Z,3.30
2023-05-15T03:13:13.125Z,3.10
2023-05-15T03:14:14.783Z,3.40
2023-05-15T03:15:16.734Z,3.10
2023-05-15T03:16:20.897Z,3.10
2023-05-15T03:17:22.708Z,3.40
2023-05-15T03:18:24.608Z,3.70
2023-05-15T03:19:26.672Z,3.90
2023-05-15T03:20:28.488Z,4.20
2023-05-15T03:21:30.420Z,4.20
2023-05-15T03:22:32.466Z,4.20
2023-05-15T03:23:36.425Z,4.20
2023-05-15T03:24:39.463Z,4.20
2023-05-15T03:25:41.245Z,4.80
2023-05-15T03:26:44.100Z,4.20
2023-05-15T03:27:45.862Z,4.30
2023-05-15T03:28:47.640Z,4.10
2023-05-15T03:29:50.944Z,3.90
2023-05-15T03:30:52.755Z,4.00
2023-05-15T03:31:54.490Z,4.20
2023-05-15T03:32:57.576Z,4.20
2023-05-15T03:33:59.434Z,4.20
2023-05-15T03:35:01.260Z,4.20
2023-05-15T03:36:02.984Z,3.50
2023-05-15T03:37:04.772Z,3.40
2023-05-15T03:38:06.440Z,3.80
2023-05-15T03:39:08.332Z,3.90
2023-05-15T03:40:10.398Z,4.20
2023-05-15T03:41:12.049Z,4.00
2023-05-15T03:42:13.980Z,3.40
2023-05-15T03:43:19.460Z,3.00
2023-05-15T03:44:22.001Z,2.70
2023-05-15T03:45:24.197Z,2.30
2023-05-15T03:46:26.421Z,2.10
2023-05-15T03:47:28.912Z,2.00
2023-05-15T03:48:30.772Z,1.70
2023-05-15T03:49:34.390Z,1.70
2023-05-15T03:50:38.504Z,2.00
2023-05-15T03:51:40.334Z,2.00
2023-05-15T03:52:42.421Z,2.00
2023-05-15T03:53:44.193Z,2.20
2023-05-15T03:54:45.866Z,2.20
2023-05-15T03:55:47.749Z,2.30
2023-05-15T03:56:49.501Z,2.60
2023-05-15T03:57:52.876Z,2.80
2023-05-15T03:58:54.826Z,2.30
2023-05-15T03:59:56.851Z,2.20
2023-05-15T04:00:58.705Z,2.40
2023-05-15T04:02:04.806Z,2.40
2023-05-15T04:03:09.447Z,2.70
2023-05-15T04:04:11.263Z,2.20
2023-05-15T04:05:12.991Z,1.80
2023-05-15T04:06:14.684Z,1.40
2023-05-15T04:07:16.517Z,1.40
2023-05-15T04:08:18.750Z,1.20
2023-05-15T04:09:20.804Z,1.10
2023-05-15T04:10:29.504Z,1.00
2023-05-15T04:11:31.791Z,1.00
2023-05-15T04:12:35.172Z,1.00
2023-05-15T04:13:37.254Z,1.00
2023-05-15T04:14:38.957Z,1.00
2023-05-15T04:15:41.063Z,1.00
2023-05-15T04:16:43.120Z,1.40
2023-05-15T04:17:46.425Z,1.80
2023-05-15T04:18:48.466Z,1.90
2023-05-15T04:19:50.239Z,1.70
2023-05-15T04:20:52.789Z,1.70
2023-05-15T04:21:54.465Z,1.80
2023-05-15T04:22:56.453Z,1.90
2023-05-15T04:23:58.107Z,1.50
2023-05-15T04:24:59.762Z,1.20
2023-05-15T04:26:01.474Z,1.30
2023-05-15T04:27:03.276Z,1.40
2023-05-15T04:28:05.234Z,1.00
2023-05-15T04:29:09.573Z,1.00
2023-05-15T04:30:12.755Z,1.00
2023-05-15T04:31:14.727Z,1.30
2023-05-15T04:32:16.598Z,1.40
2023-05-15T04:33:18.458Z,1.30
2023-05-15T04:34:21.446Z,1.20
2023-05-15T04:35:23.292Z,1.10
2023-05-15T04:36:25.839Z,1.00
2023-05-15T04:37:28.274Z,1.00
2023-05-15T04:38:30.164Z,1.00
2023-05-15T04:39:31.870Z,1.00
2023-05-15T04:40:33.679Z,1.00
2023-05-15T04:41:35.808Z,1.00
2023-05-15T04:42:39.219Z,1.00
2023-05-15T04:43:41.497Z,1.00
2023-05-15T04:44:44.779Z,1.00
2023-05-15T04:45:47.237Z,1.00
2023-05-15T04:46:49.028Z,1.00
2023-05-15T04:47:51.318Z,1.00
2023-05-15T04:48:53.457Z,1.00
2023-05-15T04:49:55.138Z,1.00
2023-05-15T04:50:57.186Z,1.00
2023-05-15T04:51:58.849Z,1.00
2023-05-15T04:53:00.734Z,1.00
2023-05-15T04:54:02.500Z,1.00
2023-05-15T04:55:04.602Z,1.00
2023-05-15T04:56:07.786Z,1.00
2023-05-15T04:57:09.575Z,1.00
2023-05-15T04:58:11.288Z,1.00
2023-05-15T04:59:13.486Z,1.00
2023-05-15T05:00:16.005Z,1.00
2023-05-15T05:01:17.896Z,1.00
2023-05-15T05:02:23.847Z,1.00
2023-05-15T05:03:25.730Z,1.00
2023-05-15T05:04:27.582Z,1.00
2023-05-15T05:05:29.211Z,1.00
2023-05-15T05:06:31.086Z,1.00
2023-05-15T05:07:33.009Z,1.00
2023-05-15T05:08:34.654Z,1.00
2023-05-15T05:09:36.316Z,1.00
2023-05-15T05:10:37.974Z,1.00
2023-05-15T05:11:43.749Z,1.00
2023-05-15T05:12:45.517Z,1.00
2023-05-15T05:14:49.601Z,1.00
2023-05-15T05:15:51.376Z,1.00
2023-05-15T05:16:56.988Z,1.00
2023-05-15T05:17:58.833Z,1.00
2023-05-15T05:19:01.124Z,1.00
2023-05-15T05:20:02.964Z,1.00
2023-05-15T05:21:04.739Z,1.00
2023-05-15T05:22:07.663Z,1.00
2023-05-15T05:23:09.497Z,1.00
2023-05-15T05:24:11.764Z,1.00
2023-05-15T05:25:13.766Z,1.00
2023-05-15T05:26:15.890Z,1.00
2023-05-15T05:27:17.562Z,1.00
2023-05-15T05:28:21.022Z,1.00
2023-05-15T05:29:22.681Z,1.00
2023-05-15T05:30:24.549Z,1.00
2023-05-15T05:31:26.667Z,1.00
2023-05-15T05:32:28.396Z,1.00
2023-05-15T05:33:30.097Z,1.00
2023-05-15T05:34:31.753Z,1.00
2023-05-15T05:35:33.625Z,1.00
2023-05-15T05:36:37.462Z,1.00
2023-05-15T05:37:41.262Z,1.00
2023-05-15T05:38:43.938Z,1.00
2023-05-15T05:39:46.987Z,1.00
2023-05-15T05:40:48.742Z,1.00
2023-05-15T05:41:50.564Z,1.00
2023-05-15T05:42:52.674Z,1.00
2023-05-15T05:43:56.136Z,1.00
2023-05-15T05:44:58.018Z,1.00
2023-05-15T05:45:59.813Z,1.00
2023-05-15T05:47:02.220Z,1.00
2023-05-15T05:48:04.176Z,1.00
2023-05-15T05:49:06.200Z,1.00
2023-05-15T05:50:08.449Z,1.00
2023-05-15T05:51:10.599Z,1.00
2023-05-15T05:52:14.251Z,1.00
2023-05-15T05:53:16.407Z,1.00
2023-05-15T05:54:18.947Z,1.00
2023-05-15T05:55:20.696Z,1.00
2023-05-15T05:56:22.894Z,1.00
2023-05-15T05:57:24.565Z,1.00
2023-05-15T05:58:26.812Z,1.00
2023-05-15T05:59:29.786Z,1.00
2023-05-15T06:00:32.651Z,1.00
2023-05-15T06:01:34.718Z,1.00
2023-05-15T06:02:38.257Z,1.00
2023-05-15T06:03:43.259Z,1.00
2023-05-15T06:04:46.196Z,1.00
2023-05-15T06:05:48.809Z,1.00
2023-05-15T06:06:50.482Z,1.00
2023-05-15T06:07:52.973Z,1.00
2023-05-15T06:08:56.526Z,1.00
2023-05-15T06:09:58.409Z,1.00
2023-05-15T06:11:00.197Z,1.00
2023-05-15T06:12:04.614Z,1.00
2023-05-15T06:13:06.880Z,1.00
2023-05-15T06:14:08.616Z,1.00
2023-05-15T06:15:10.842Z,1.00
2023-05-15T06:16:12.624Z,1.00
2023-05-15T06:17:15.053Z,1.00
2023-05-15T06:18:16.958Z,1.00
2023-05-15T06:19:18.841Z,1.00
2023-05-15T06:20:20.757Z,1.00
2023-05-15T06:21:23.636Z,1.00
2023-05-15T06:22:25.599Z,1.00
2023-05-15T06:23:27.678Z,1.00
2023-05-15T06:24:29.424Z,1.00
2023-05-15T06:25:31.442Z,1.00
2023-05-15T06:26:33.290Z,1.00
2023-05-15T06:27:35.703Z,1.00
2023-05-15T06:28:37.447Z,1.00
2023-05-15T06:29:39.152Z,1.00
2023-05-15T06:30:40.959Z,1.00
2023-05-15T06:31:42.826Z,1.00
2023-05-15T06:32:44.700Z,1.00
2023-05-15T06:33:46.431Z,1.00
2023-05-15T06:34:48.313Z,1.00
2023-05-15T06:35:50.158Z,1.00
2023-05-15T06:36:52.619Z,1.00
2023-05-15T06:37:55.423Z,1.00
2023-05-15T06:38:58.248Z,1.00
2023-05-15T06:40:00.266Z,1.00
2023-05-15T06:41:02.026Z,1.00
2023-05-15T06:42:04.156Z,1.00
2023-05-15T06:43:06.167Z,1.00
2023-05-15T06:44:07.854Z,1.00
2023-05-15T06:45:10.426Z,1.00
2023-05-15T06:46:12.190Z,1.00
2023-05-15T06:47:13.932Z,1.00
2023-05-15T06:48:15.907Z,1.00
2023-05-15T06:49:17.758Z,1.00
2023-05-15T06:50:19.755Z,1.00
2023-05-15T06:51:21.555Z,1.00
2023-05-15T06:52:23.570Z,1.00
2023-05-15T06:53:25.378Z,1.00
2023-05-15T06:54:27.123Z,1.00
2023-05-15T06:55:29.096Z,1.00
2023-05-15T06:56:30.851Z,1.00
2023-05-15T06:57:34.181Z,1.00
2023-05-15T06:58:35.933Z,1.00
2023-05-15T06:59:38.317Z,1.00
2023-05-15T07:00:40.274Z,1.00
2023-05-15T07:01:42.014Z,1.00
2023-05-15T07:02:43.956Z,1.00
2023-05-15T07:03:48.308Z,1.00
2023-05-15T07:04:50.171Z,1.00
2023-05-15T07:05:53.434Z,1.00
2023-05-15T07:06:55.162Z,1.00
2023-05-15T07:07:56.883Z,1.00
2023-05-15T07:08:59.586Z,1.00
2023-05-15T07:10:01.267Z,1.00
2023-05-15T07:11:03.090Z,1.00
2023-05-15T07:12:05.160Z,1.00
2023-05-15T07:13:06.848Z,1.00
2023-05-15T07:14:08.546Z,1.00
2023-05-15T07:15:10.668Z,1.00
2023-05-15T07:16:12.501Z,1.00
2023-05-15T07:17:14.201Z,1.00
2023-05-15T07:18:15.997Z,1.00
2023-05-15T07:19:21.063Z,1.00
2023-05-15T07:20:23.086Z,1.00
2023-05-15T07:21:25.396Z,1.00
2023-05-15T07:22:28.368Z,1.00
2023-05-15T07:23:30.035Z,1.00
2023-05-15T07:24:31.907Z,1.00
2023-05-15T07:25:36.206Z,1.00
2023-05-15T07:26:50.246Z,1.00
2023-05-15T07:27:59.601Z,1.00
2023-05-15T07:29:01.318Z,1.00
2023-05-15T07:30:06.743Z,1.00
2023-05-15T07:31:08.655Z,1.00
2023-05-15T07:32:10.467Z,1.00
2023-05-15T07:33:12.410Z,1.00
2023-05-15T07:34:14.127Z,1.00
2023-05-15T07:35:16.147Z,1.00
2023-05-15T07:36:17.809Z,1.00
2023-05-15T07:37:20.643Z,1.00
2023-05-15T07:38:22.352Z,1.00
2023-05-15T07:39:24.076Z,1.00
2023-05-15T07:40:25.743Z,1.00
2023-05-15T07:41:27.408Z,1.00
2023-05-15T07:42:29.090Z,1.00
2023-05-15T07:43:30.924Z,1.00
2023-05-15T07:44:34.126Z,1.00
2023-05-15T07:45:36.248Z,1.00
2023-05-15T07:46:39.079Z,1.00
2023-05-15T07:47:47.234Z,1.00
2023-05-15T07:48:49.341Z,1.00
2023-05-15T07:49:50.987Z,1.00
2023-05-15T07:50:54.078Z,1.00
2023-05-15T07:51:56.115Z,1.00
2023-05-15T07:52:57.805Z,1.00
2023-05-15T07:53:59.928Z,1.00
2023-05-15T07:55:01.836Z,1.00
2023-05-15T07:56:03.694Z,1.00
2023-05-15T07:57:05.622Z,1.00
2023-05-15T07:58:08.210Z,1.00
2023-05-15T07:59:09.956Z,1.00
2023-05-15T08:00:13.609Z,1.00
2023-05-15T08:01:16.055Z,1.00
2023-05-15T08:02:18.194Z,1.00
2023-05-15T08:03:20.024Z,1.00
2023-05-15T08:04:21.990Z,1.00
2023-05-15T08:05:24.072Z,1.00
2023-05-15T08:06:26.218Z,1.00
2023-05-15T08:07:27.898Z,1.00
2023-05-15T08:08:29.842Z,1.00
2023-05-15T08:09:31.885Z,1.00
2023-05-15T08:10:33.573Z,1.00
2023-05-15T08:11:36.219Z,1.00
2023-05-15T08:12:38.054Z,1.00
2023-05-15T08:13:39.721Z,1.00
2023-05-15T08:14:43.023Z,1.00
2023-05-15T08:15:45.278Z,1.00
2023-05-15T08:16:47.122Z,1.00
2023-05-15T08:17:49.031Z,1.00
2023-05-15T08:18:53.518Z,1.00
2023-05-15T08:19:56.245Z,1.00
2023-05-15T08:20:57.934Z,1.00
2023-05-15T08:21:59.595Z,1.00
2023-05-15T08:23:03.627Z,1.00
2023-05-15T08:24:05.681Z,1.00
2023-05-15T08:25:09.527Z,1.00
2023-05-15T08:26:13.287Z,1.00
2023-05-15T08:27:15.017Z,1.00
2023-05-15T08:28:17.154Z,1.00
2023-05-15T08:29:18.866Z,1.00
2023-05-15T08:30:21.108Z,1.00
2023-05-15T08:31:22.889Z,1.00
2023-05-15T08:32:24.711Z,1.00
2023-05-15T08:33:26.511Z,1.00
2023-05-15T08:34:29.804Z,1.00
2023-05-15T08:35:32.009Z,1.00
2023-05-15T08:36:33.771Z,1.00
2023-05-15T08:37:35.476Z,1.00
2023-05-15T08:38:37.110Z,1.00
2023-05-15T08:39:38.823Z,1.00
2023-05-15T08:40:43.652Z,1.00
2023-05-15T08:42:05.081Z,1.00
2023-05-15T08:43:15.903Z,1.00
2023-05-15T08:44:17.976Z,1.00
2023-05-15T08:45:20.597Z,1.00
2023-05-15T08:46:23.431Z,1.00
2023-05-15T08:47:31.668Z,1.00
2023-05-15T08:48:37.985Z,1.00
2023-05-15T08:49:54.192Z,1.00
2023-05-15T08:50:58.557Z,1.00
2023-05-15T08:52:01.023Z,1.00
2023-05-15T08:53:03.552Z,1.00
2023-05-15T08:54:05.528Z,1.00
2023-05-15T08:55:08.090Z,1.00
2023-05-15T08:56:09.803Z,1.00
2023-05-15T08:57:11.551Z,1.00
2023-05-15T08:58:14.034Z,1.00
2023-05-15T08:59:15.846Z,1.00
2023-05-15T09:00:20.217Z,1.00
2023-05-15T09:01:22.508Z,1.00
2023-05-15T09:02:26.189Z,1.00
2023-05-15T09:03:28.522Z,1.00
2023-05-15T09:04:30.243Z,1.00
2023-05-15T09:05:32.340Z,1.00
2023-05-15T09:06:34.703Z,1.00
2023-05-15T09:07:38.687Z,1.00
2023-05-15T09:08:41.473Z,1.00
2023-05-15T09:09:45.005Z,1.00
2023-05-15T09:10:47.259Z,1.00
2023-05-15T09:11:50.662Z,1.00
2023-05-15T09:12:53.440Z,1.00
2023-05-15T09:13:59.513Z,1.00
2023-05-15T09:15:12.233Z,1.00
2023-05-15T09:16:15.481Z,1.00
2023-05-15T09:17:17.313Z,1.00
2023-05-15T09:18:19.470Z,1.00
2023-05-15T09:19:22.495Z,1.00
2023-05-15T09:20:31.537Z,1.00
2023-05-15T09:21:34.209Z,1.00
2023-05-15T09:22:36.555Z,1.00
2023-05-15T09:23:38.218Z,1.00
2023-05-15T09:24:40.084Z,1.00
2023-05-15T09:25:44.680Z,1.00
2023-05-15T09:26:47.876Z,1.00
2023-05-15T09:27:49.657Z,1.00
2023-05-15T09:28:53.076Z,1.00
2023-05-15T09:29:56.543Z,1.00
2023-05-15T09:31:05.667Z,1.00
2023-05-15T09:32:11.598Z,1.00
2023-05-15T09:33:16.648Z,1.00
2023-05-15T09:34:18.428Z,1.00
2023-05-15T09:35:34.185Z,1.00
2023-05-15T09:36:36.869Z,1.00
2023-05-15T09:37:38.678Z,1.00
2023-05-15T09:38:42.555Z,1.00
2023-05-15T09:39:45.049Z,1.00
2023-05-15T09:40:46.826Z,1.00
2023-05-15T09:41:48.809Z,1.00
2023-05-15T09:42:53.475Z,1.00
2023-05-15T09:43:56.921Z,1.00
2023-05-15T09:44:58.631Z,1.00
2023-05-15T09:46:00.648Z,1.00
2023-05-15T09:47:05.498Z,1.00
2023-05-15T09:48:08.408Z,1.00
2023-05-15T09:49:10.453Z,1.00
2023-05-15T09:50:12.246Z,1.00
2023-05-15T09:51:18.496Z,1.00
2023-05-15T09:52:20.521Z,1.00
2023-05-15T09:53:23.621Z,1.00
2023-05-15T09:54:27.390Z,1.00
2023-05-15T09:55:34.977Z,1.00
2023-05-15T09:56:37.056Z,1.00
2023-05-15T09:57:38.964Z,1.00
2023-05-15T09:58:54.405Z,1.00
2023-05-15T10:00:00.671Z,1.00
2023-05-15T10:01:03.225Z,1.00
2023-05-15T10:02:06.095Z,1.00
2023-05-15T10:03:09.445Z,1.00
2023-05-15T10:04:13.894Z,1.00
2023-05-15T10:05:16.549Z,1.00
2023-05-15T10:06:19.407Z,1.00
2023-05-15T10:07:36.801Z,1.00
2023-05-15T10:08:40.810Z,1.00
2023-05-15T10:09:42.633Z,1.00
2023-05-15T10:10:46.360Z,1.00
2023-05-15T10:11:53.932Z,1.00
2023-05-15T10:13:07.016Z,1.00
2023-05-15T10:14:10.604Z,1.00
2023-05-15T10:15:17.002Z,1.00
2023-05-15T10:16:22.678Z,1.00
2023-05-15T10:17:25.559Z,1.00
2023-05-15T10:18:30.435Z,1.00
2023-05-15T10:19:32.672Z,1.00
2023-05-15T10:20:37.421Z,1.00
2023-05-15T10:21:41.653Z,1.00
2023-05-15T10:22:46.773Z,1.00
2023-05-15T10:23:51.017Z,1.00
2023-05-15T10:25:25.515Z,1.00
2023-05-15T10:26:40.418Z,1.00
2023-05-15T10:27:43.579Z,1.00
2023-05-15T10:28:46.578Z,1.00
2023-05-15T10:29:51.347Z,1.00
2023-05-15T10:30:54.914Z,1.00
2023-05-15T10:31:58.735Z,1.00
2023-05-15T10:33:01.033Z,1.00
2023-05-15T10:34:06.667Z,1.00
2023-05-15T10:35:10.941Z,1.00
2023-05-15T10:36:14.767Z,1.00
2023-05-15T10:37:18.359Z,1.00
2023-05-15T10:38:22.001Z,1.00
2023-05-15T10:39:24.458Z,1.00
2023-05-15T10:40:28.311Z,1.00
2023-05-15T10:41:32.990Z,1.00
2023-05-15T10:42:36.922Z,1.00
2023-05-15T10:43:41.533Z,1.00
2023-05-15T10:44:43.410Z,1.00
2023-05-15T10:45:45.703Z,1.00
2023-05-15T10:46:48.089Z,1.00
2023-05-15T10:47:51.036Z,1.00
2023-05-15T10:48:53.246Z,1.00
2023-05-15T10:49:55.125Z,1.00
2023-05-15T10:51:01.367Z,1.00
2023-05-15T10:52:03.563Z,1.00
2023-05-15T10:53:06.009Z,1.00
2023-05-15T10:54:09.675Z,1.00
2023-05-15T10:55:16.268Z,1.00
2023-05-15T10:56:18.417Z,1.00
2023-05-15T10:57:23.053Z,1.00
2023-05-15T10:58:25.028Z,1.00
2023-05-15T10:59:34.820Z,1.00
2023-05-15T11:00:44.399Z,1.00
2023-05-15T11:01:46.318Z,1.00
2023-05-15T11:02:48.721Z,1.00
2023-05-15T11:03:53.223Z,1.00
2023-05-15T11:04:57.902Z,1.00
2023-05-15T11:06:13.929Z,1.00
2023-05-15T11:07:18.063Z,1.00
2023-05-15T11:08:21.650Z,1.00
2023-05-15T11:09:29.190Z,1.00
2023-05-15T11:10:30.839Z,1.00
2023-05-15T11:12:00.874Z,1.00
2023-05-15T11:13:02.966Z,1.00
2023-05-15T11:14:10.389Z,1.00
2023-05-15T11:15:14.781Z,1.00
2023-05-15T11:17:04.611Z,1.00
2023-05-15T11:18:07.620Z,1.00
2023-05-15T11:19:22.659Z,1.00
2023-05-15T11:20:35.055Z,1.00
2023-05-15T11:21:46.430Z,1.00
2023-05-15T11:22:59.380Z,1.00
2023-05-15T11:24:05.175Z,1.00
2023-05-15T11:25:09.263Z,1.00
2023-05-15T11:26:13.675Z,1.00
2023-05-15T11:27:42.373Z,1.00
2023-05-15T11:28:44.593Z,1.00
2023-05-15T11:30:13.007Z,1.00
2023-05-15T11:31:15.767Z,1.00
2023-05-15T11:32:46.668Z,1.00
2023-05-15T11:33:52.408Z,1.00
2023-05-15T11:35:01.099Z,1.00
2023-05-15T11:36:05.780Z,1.00
2023-05-15T11:37:17.393Z,1.00
2023-05-15T11:38:25.841Z,1.00
2023-05-15T11:39:28.662Z,1.00
2023-05-15T11:40:44.486Z,1.00
2023-05-15T11:41:46.203Z,1.00
2023-05-15T11:43:07.259Z,1.00
2023-05-15T11:44:09.392Z,1.00
2023-05-15T11:45:11.737Z,1.00
2023-05-15T11:46:16.655Z,1.00
2023-05-15T11:47:18.409Z,1.00
2023-05-15T11:48:20.767Z,1.00
2023-05-15T11:49:24.654Z,1.00
2023-05-15T11:50:27.627Z,1.00
2023-05-15T11:51:30.162Z,1.00
2023-05-15T11:52:32.563Z,1.00
2023-05-15T11:53:35.346Z,1.00
2023-05-15T11:54:37.226Z,1.00
2023-05-15T11:55:41.665Z,1.00
2023-05-15T11:56:46.488Z,1.00
2023-05-15T11:57:48.180Z,1.00
2023-05-15T11:59:00.335Z,1.00
2023-05-15T12:00:02.063Z,1.00
2023-05-15T12:01:04.173Z,1.00
2023-05-15T12:02:06.508Z,1.00
2023-05-15T12:03:14.696Z,1.00
2023-05-15T12:04:18.170Z,1.00
2023-05-15T12:05:20.121Z,1.00
2023-05-15T12:06:22.462Z,1.00
2023-05-15T12:07:24.170Z,1.00
2023-05-15T12:08:26.714Z,1.00
2023-05-15T12:09:29.102Z,1.00
2023-05-15T12:10:31.214Z,1.00
2023-05-15T12:11:33.596Z,1.00
2023-05-15T12:12:37.342Z,1.00
2023-05-15T12:13:40.442Z,1.00
2023-05-15T12:14:42.219Z,1.00
2023-05-15T12:15:46.846Z,1.00
2023-05-15T12:16:53.550Z,1.00
2023-05-15T12:17:55.328Z,1.00
2023-05-15T12:18:57.929Z,1.00
2023-05-15T12:20:00.851Z,1.00
2023-05-15T12:21:04.795Z,1.00
2023-05-15T12:22:08.389Z,1.00
2023-05-15T12:23:10.050Z,1.00
2023-05-15T12:24:12.955Z,1.00
2023-05-15T12:25:15.570Z,1.00
2023-05-15T12:26:17.474Z,1.00
2023-05-15T12:27:19.470Z,1.00
2023-05-15T12:28:21.458Z,1.00
2023-05-15T12:29:23.388Z,1.00
2023-05-15T12:30:25.547Z,1.00
2023-05-15T12:31:29.787Z,1.00
2023-05-15T12:32:34.789Z,1.00
2023-05-15T12:33:36.652Z,1.00
2023-05-15T12:34:38.518Z,1.00
2023-05-15T12:35:45.023Z,1.00
2023-05-15T12:36:47.110Z,1.00
2023-05-15T12:37:49.760Z,1.00
2023-05-15T12:38:51.634Z,1.00
2023-05-15T12:39:59.972Z,1.00
2023-05-15T12:41:01.763Z,1.00
2023-05-15T12:42:04.177Z,1.00
2023-05-15T12:43:07.435Z,1.00
2023-05-15T12:44:19.306Z,1.00
2023-05-15T12:45:23.013Z,1.00
2023-05-15T12:46:31.739Z,1.00
2023-05-15T12:47:33.697Z,1.00
2023-05-15T12:48:36.936Z,1.00
2023-05-15T12:49:41.093Z,1.00
2023-05-15T12:50:45.202Z,1.00
2023-05-15T12:51:46.991Z,1.00
2023-05-15T12:52:52.511Z,1.00
2023-05-15T12:53:54.899Z,1.00
2023-05-15T12:55:00.606Z,1.00
2023-05-15T12:56:02.584Z,1.00
2023-05-15T12:57:04.473Z,1.00
2023-05-15T12:58:08.928Z,1.00
2023-05-15T12:59:11.817Z,1.00
2023-05-15T13:00:15.024Z,1.00
2023-05-15T13:01:17.905Z,1.00
2023-05-15T13:02:23.113Z,1.00
2023-05-15T13:03:28.682Z,1.00
2023-05-15T13:04:33.379Z,1.00
2023-05-15T13:05:36.450Z,1.00
2023-05-15T13:06:46.450Z,1.00
2023-05-15T13:07:49.593Z,1.00
2023-05-15T13:08:51.462Z,1.00
2023-05-15T13:10:06.999Z,1.00
2023-05-15T13:11:13.983Z,1.00
2023-05-15T13:12:19.506Z,1.00
2023-05-15T13:13:21.482Z,1.00
2023-05-15T13:14:27.177Z,1.00
2023-05-15T13:15:37.600Z,1.00
2023-05-15T13:16:42.714Z,1.00
2023-05-15T13:17:45.843Z,1.00
2023-05-15T13:18:47.983Z,1.00
2023-05-15T13:19:49.889Z,1.00
2023-05-15T13:20:51.774Z,1.00
2023-05-15T13:21:53.928Z,1.00
2023-05-15T13:22:55.927Z,1.00
2023-05-15T13:23:57.613Z,1.00
2023-05-15T13:24:59.356Z,1.00
2023-05-15T13:26:01.025Z,1.00
2023-05-15T13:27:02.777Z,1.00
2023-05-15T13:28:06.342Z,1.00
2023-05-15T13:29:09.445Z,1.00
2023-05-15T13:30:11.634Z,1.00
2023-05-15T13:31:13.613Z,1.00
2023-05-15T13:32:15.406Z,1.00
2023-05-15T13:33:18.694Z,1.00
2023-05-15T13:34:21.525Z,1.00
2023-05-15T13:35:23.710Z,1.00
2023-05-15T13:36:25.825Z,1.00
2023-05-15T13:37:27.858Z,1.00
2023-05-15T13:38:30.902Z,1.00
2023-05-15T13:39:32.611Z,1.00
2023-05-15T13:40:38.400Z,1.00
2023-05-15T13:41:40.213Z,1.00
2023-05-15T13:42:43.430Z,1.00
2023-05-15T13:43:45.139Z,1.00
2023-05-15T13:44:47.742Z,1.00
2023-05-15T13:45:49.825Z,1.00
2023-05-15T13:46:51.832Z,1.00
2023-05-15T13:47:55.764Z,1.00
2023-05-15T13:49:02.837Z,1.00
2023-05-15T13:50:05.469Z,1.00
2023-05-15T13:51:07.184Z,1.00
2023-05-15T13:52:08.965Z,1.00
2023-05-15T13:53:10.722Z,1.00
2023-05-15T13:54:12.664Z,1.00
2023-05-15T13:55:14.737Z,1.00
2023-05-15T13:56:16.490Z,1.00
2023-05-15T13:57:18.839Z,1.00
2023-05-15T13:58:20.597Z,1.00
2023-05-15T13:59:22.302Z,1.00
2023-05-15T14:00:24.639Z,1.00
2023-05-15T14:01:26.602Z,1.00
2023-05-15T14:02:28.804Z,1.00
2023-05-15T14:03:30.971Z,1.00
2023-05-15T14:04:33.255Z,1.00
2023-05-15T14:05:35.168Z,1.00
2023-05-15T14:06:36.906Z,1.00
2023-05-15T14:07:38.704Z,1.00
2023-05-15T14:08:40.454Z,1.00
2023-05-15T14:09:42.333Z,1.00
2023-05-15T14:10:44.770Z,1.00
2023-05-15T14:11:46.647Z,1.00